createdAt,value
2023-03-13T00:00:07.038Z,1008.23
2023-03-13T00:01:07.226Z,1008.20
2023-03-13T00:02:07.504Z,1008.22
2023-03-13T00:03:07.582Z,1008.22
2023-03-13T00:04:07.774Z,1008.26
2023-03-13T00:05:08.033Z,1008.23
2023-03-13T00:06:08.125Z,1008.18
2023-03-13T00:07:08.335Z,1008.16
2023-03-13T00:08:08.479Z,1008.18
2023-03-13T00:09:08.673Z,1008.11
2023-03-13T00:10:08.848Z,1008.12
2023-03-13T00:11:09.022Z,1008.08
2023-03-13T00:12:09.224Z,1008.03
2023-03-13T00:13:09.361Z,1008.08
2023-03-13T00:14:09.558Z,1008.03
2023-03-13T00:15:09.705Z,1008.05
2023-03-13T00:16:09.949Z,1008.03
2023-03-13T00:17:10.091Z,1008.06
2023-03-13T00:18:10.256Z,1008.07
2023-03-13T00:19:10.419Z,1008.08
2023-03-13T00:20:10.624Z,1008.06
2023-03-13T00:21:10.770Z,1008.04
2023-03-13T00:22:10.976Z,1008.02
2023-03-13T00:23:11.122Z,1008.02
2023-03-13T00:24:11.352Z,1008.01
2023-03-13T00:25:11.471Z,1008.00
2023-03-13T00:26:11.665Z,1007.99
2023-03-13T00:27:11.851Z,1007.99
2023-03-13T00:28:12.029Z,1007.92
2023-03-13T00:29:12.212Z,1007.90
2023-03-13T00:30:12.385Z,1007.94
2023-03-13T00:31:12.600Z,1007.94
2023-03-13T00:32:12.821Z,1007.96
2023-03-13T00:33:12.905Z,1007.99
2023-03-13T00:34:13.084Z,1007.93
2023-03-13T00:35:13.259Z,1007.94
2023-03-13T00:36:13.437Z,1007.96
2023-03-13T00:37:13.649Z,1008.03
2023-03-13T00:38:13.799Z,1008.00
2023-03-13T00:39:13.984Z,1007.99
2023-03-13T00:40:14.181Z,1007.96
2023-03-13T00:41:14.330Z,1007.89
2023-03-13T00:42:14.534Z,1007.89
2023-03-13T00:43:14.678Z,1007.91
2023-03-13T00:44:14.850Z,1007.94
2023-03-13T00:45:15.031Z,1007.88
2023-03-13T00:46:15.322Z,1007.92
2023-03-13T00:47:15.410Z,1007.83
2023-03-13T00:48:15.568Z,1007.80
2023-03-13T00:49:15.736Z,1007.81
2023-03-13T00:50:15.938Z,1007.85
2023-03-13T00:51:16.115Z,1007.83
2023-03-13T00:52:16.335Z,1007.79
2023-03-13T00:53:16.464Z,1007.76
2023-03-13T00:54:16.656Z,1007.71
2023-03-13T00:55:16.841Z,1007.71
2023-03-13T00:56:17.050Z,1007.70
2023-03-13T00:57:17.208Z,1007.66
2023-03-13T00:58:17.361Z,1007.63
2023-03-13T00:59:17.534Z,1007.65
2023-03-13T01:00:17.721Z,1007.62
2023-03-13T01:01:17.895Z,1007.58
2023-03-13T01:02:18.181Z,1007.54
2023-03-13T01:03:18.392Z,1007.55
2023-03-13T01:04:18.407Z,1007.55
2023-03-13T01:05:18.604Z,1007.53
2023-03-13T01:06:18.768Z,1007.54
2023-03-13T01:07:19.001Z,1007.53
2023-03-13T01:08:19.150Z,1007.55
2023-03-13T01:09:19.321Z,1007.54
2023-03-13T01:10:19.498Z,1007.55
2023-03-13T01:11:19.697Z,1007.58
2023-03-13T01:12:19.905Z,1007.58
2023-03-13T01:13:20.028Z,1007.58
2023-03-13T01:14:20.271Z,1007.56
2023-03-13T01:15:20.395Z,1007.52
2023-03-13T01:16:20.653Z,1007.54
2023-03-13T01:17:20.781Z,1007.57
2023-03-13T01:18:20.937Z,1007.52
2023-03-13T01:19:21.112Z,1007.53
2023-03-13T01:20:21.303Z,1007.52
2023-03-13T01:21:21.492Z,1007.52
2023-03-13T01:22:21.686Z,1007.53
2023-03-13T01:23:21.831Z,1007.47
2023-03-13T01:24:22.022Z,1007.47
2023-03-13T01:25:22.203Z,1007.50
2023-03-13T01:26:22.403Z,1007.52
2023-03-13T01:27:22.622Z,1007.56
2023-03-13T01:28:22.753Z,1007.64
2023-03-13T01:29:22.911Z,1007.61
2023-03-13T01:30:23.083Z,1007.63
2023-03-13T01:31:23.322Z,1007.63
2023-03-13T01:32:23.443Z,1007.62
2023-03-13T01:33:23.568Z,1007.63
2023-03-13T01:34:23.732Z,1007.62
2023-03-13T01:35:23.942Z,1007.59
2023-03-13T01:36:24.091Z,1007.59
2023-03-13T01:37:24.273Z,1007.58
2023-03-13T01:38:24.441Z,1007.53
2023-03-13T01:39:24.574Z,1007.53
2023-03-13T01:40:24.755Z,1007.52
2023-03-13T01:41:24.952Z,1007.53
2023-03-13T01:42:25.123Z,1007.49
2023-03-13T01:43:27.444Z,1007.44
2023-03-13T01:44:25.538Z,1007.40
2023-03-13T01:45:25.662Z,1007.38
2023-03-13T01:46:25.888Z,1007.36
2023-03-13T01:47:25.994Z,1007.34
2023-03-13T01:48:26.209Z,1007.33
2023-03-13T01:49:26.373Z,1007.32
2023-03-13T01:50:26.555Z,1007.26
2023-03-13T01:51:26.719Z,1007.20
2023-03-13T01:52:26.915Z,1007.15
2023-03-13T01:53:27.114Z,1007.13
2023-03-13T01:54:27.263Z,1007.06
2023-03-13T01:55:27.456Z,1007.07
2023-03-13T01:56:27.637Z,1007.05
2023-03-13T01:57:27.824Z,1007.09
2023-03-13T01:58:28.023Z,1007.04
2023-03-13T01:59:28.171Z,1007.00
2023-03-13T02:00:28.344Z,1007.03
2023-03-13T02:01:28.560Z,1007.00
2023-03-13T02:02:28.770Z,1007.05
2023-03-13T02:03:28.888Z,1007.02
2023-03-13T02:04:29.073Z,1006.99
2023-03-13T02:05:29.248Z,1006.98
2023-03-13T02:06:29.432Z,1006.97
2023-03-13T02:07:29.632Z,1006.98
2023-03-13T02:08:29.802Z,1007.02
2023-03-13T02:09:29.952Z,1007.03
2023-03-13T02:10:30.122Z,1007.00
2023-03-13T02:11:30.309Z,1006.99
2023-03-13T02:12:30.500Z,1006.98
2023-03-13T02:13:30.688Z,1006.90
2023-03-13T02:14:30.841Z,1006.91
2023-03-13T02:15:31.021Z,1006.87
2023-03-13T02:16:31.300Z,1006.88
2023-03-13T02:17:31.388Z,1006.88
2023-03-13T02:18:31.596Z,1006.89
2023-03-13T02:19:31.736Z,1006.88
2023-03-13T02:20:31.929Z,1006.84
2023-03-13T02:21:32.076Z,1006.85
2023-03-13T02:22:32.278Z,1006.80
2023-03-13T02:23:32.435Z,1006.81
2023-03-13T02:24:32.580Z,1006.80
2023-03-13T02:25:32.774Z,1006.78
2023-03-13T02:26:32.972Z,1006.75
2023-03-13T02:27:33.166Z,1006.74
2023-03-13T02:28:33.396Z,1006.71
2023-03-13T02:29:33.471Z,1006.69
2023-03-13T02:30:33.671Z,1006.67
2023-03-13T02:31:33.955Z,1006.69
2023-03-13T02:32:34.101Z,1006.69
2023-03-13T02:33:34.237Z,1006.70
2023-03-13T02:34:34.387Z,1006.70
2023-03-13T02:35:34.654Z,1006.73
2023-03-13T02:36:34.740Z,1006.67
2023-03-13T02:37:34.937Z,1006.68
2023-03-13T02:38:35.181Z,1006.60
2023-03-13T02:39:35.671Z,1006.60
2023-03-13T02:40:35.514Z,1006.59
2023-03-13T02:41:36.176Z,1006.55
2023-03-13T02:42:35.819Z,1006.54
2023-03-13T02:43:36.019Z,1006.58
2023-03-13T02:44:36.172Z,1006.53
2023-03-13T02:45:36.321Z,1006.51
2023-03-13T02:46:36.558Z,1006.51
2023-03-13T02:47:36.690Z,1006.48
2023-03-13T02:48:36.883Z,1006.45
2023-03-13T02:49:37.033Z,1006.41
2023-03-13T02:50:37.223Z,1006.39
2023-03-13T02:51:37.405Z,1006.37
2023-03-13T02:52:37.604Z,1006.35
2023-03-13T02:53:37.773Z,1006.33
2023-03-13T02:54:37.941Z,1006.36
2023-03-13T02:55:38.107Z,1006.33
2023-03-13T02:56:38.295Z,1006.35
2023-03-13T02:57:38.499Z,1006.29
2023-03-13T02:58:49.201Z,1006.26
2023-03-13T02:59:39.818Z,1006.27
2023-03-13T03:00:39.049Z,1006.23
2023-03-13T03:01:39.180Z,1006.28
2023-03-13T03:02:39.338Z,1006.21
2023-03-13T03:03:39.605Z,1006.21
2023-03-13T03:04:39.679Z,1006.22
2023-03-13T03:05:39.885Z,1006.23
2023-03-13T03:06:40.036Z,1006.19
2023-03-13T03:07:40.224Z,1006.18
2023-03-13T03:08:40.426Z,1006.16
2023-03-13T03:09:40.576Z,1006.14
2023-03-13T03:10:40.769Z,1006.09
2023-03-13T03:11:40.950Z,1006.10
2023-03-13T03:12:41.103Z,1006.06
2023-03-13T03:13:41.299Z,1006.06
2023-03-13T03:14:41.457Z,1006.05
2023-03-13T03:15:41.638Z,1006.05
2023-03-13T03:16:41.872Z,1006.00
2023-03-13T03:17:42.021Z,1006.00
2023-03-13T03:18:42.218Z,1005.97
2023-03-13T03:19:42.361Z,1005.96
2023-03-13T03:20:42.536Z,1006.05
2023-03-13T03:21:42.716Z,1006.06
2023-03-13T03:22:42.913Z,1006.04
2023-03-13T03:23:43.125Z,1006.04
2023-03-13T03:24:43.299Z,1006.03
2023-03-13T03:25:43.470Z,1006.03
2023-03-13T03:26:43.663Z,1006.01
2023-03-13T03:27:43.858Z,1005.98
2023-03-13T03:28:44.029Z,1005.95
2023-03-13T03:29:44.190Z,1005.94
2023-03-13T03:30:44.340Z,1005.97
2023-03-13T03:31:44.658Z,1005.97
2023-03-13T03:32:44.791Z,1005.92
2023-03-13T03:33:44.889Z,1005.92
2023-03-13T03:34:45.062Z,1005.88
2023-03-13T03:35:45.264Z,1005.88
2023-03-13T03:36:45.397Z,1005.88
2023-03-13T03:37:45.586Z,1005.78
2023-03-13T03:38:45.787Z,1005.83
2023-03-13T03:39:45.948Z,1005.82
2023-03-13T03:40:46.144Z,1005.77
2023-03-13T03:41:46.319Z,1005.73
2023-03-13T03:42:46.543Z,1005.77
2023-03-13T03:43:46.711Z,1005.69
2023-03-13T03:44:46.859Z,1005.65
2023-03-13T03:45:47.113Z,1005.69
2023-03-13T03:46:47.289Z,1005.66
2023-03-13T03:47:47.387Z,1005.63
2023-03-13T03:48:47.590Z,1005.64
2023-03-13T03:49:47.736Z,1005.68
2023-03-13T03:50:47.925Z,1005.64
2023-03-13T03:51:48.106Z,1005.67
2023-03-13T03:52:48.265Z,1005.59
2023-03-13T03:53:48.477Z,1005.58
2023-03-13T03:54:48.617Z,1005.59
2023-03-13T03:55:48.798Z,1005.59
2023-03-13T03:56:48.988Z,1005.55
2023-03-13T03:57:49.178Z,1005.53
2023-03-13T03:58:49.368Z,1005.53
2023-03-13T03:59:49.528Z,1005.51
2023-03-13T04:00:49.733Z,1005.52
2023-03-13T04:01:49.944Z,1005.49
2023-03-13T04:02:50.088Z,1005.46
2023-03-13T04:03:50.290Z,1005.41
2023-03-13T04:04:50.437Z,1005.36
2023-03-13T04:05:50.630Z,1005.35
2023-03-13T04:06:50.778Z,1005.32
2023-03-13T04:07:50.968Z,1005.30
2023-03-13T04:08:51.166Z,1005.29
2023-03-13T04:09:51.312Z,1005.21
2023-03-13T04:10:51.500Z,1005.25
2023-03-13T04:11:51.691Z,1005.22
2023-03-13T04:12:51.878Z,1005.16
2023-03-13T04:13:52.071Z,1005.20
2023-03-13T04:14:52.231Z,1005.20
2023-03-13T04:15:52.410Z,1005.21
2023-03-13T04:16:52.646Z,1005.19
2023-03-13T04:17:52.783Z,1005.20
2023-03-13T04:18:53.131Z,1005.16
2023-03-13T04:19:53.256Z,1005.12
2023-03-13T04:20:53.330Z,1005.12
2023-03-13T04:21:53.574Z,1005.11
2023-03-13T04:22:53.686Z,1005.07
2023-03-13T04:23:53.930Z,1005.01
2023-03-13T04:24:54.079Z,1004.99
2023-03-13T04:25:54.300Z,1005.02
2023-03-13T04:26:54.412Z,1004.99
2023-03-13T04:27:54.549Z,1004.94
2023-03-13T04:28:54.756Z,1004.93
2023-03-13T04:29:55.076Z,1004.90
2023-03-13T04:30:55.150Z,1004.92
2023-03-13T04:31:55.322Z,1004.93
2023-03-13T04:32:55.455Z,1004.92
2023-03-13T04:33:55.677Z,1004.91
2023-03-13T04:34:55.824Z,1004.94
2023-03-13T04:35:55.948Z,1004.92
2023-03-13T04:36:56.060Z,1004.91
2023-03-13T04:37:56.395Z,1004.88
2023-03-13T04:38:56.623Z,1004.87
2023-03-13T04:39:56.898Z,1004.87
2023-03-13T04:40:56.718Z,1004.81
2023-03-13T04:41:56.970Z,1004.85
2023-03-13T04:42:57.112Z,1004.77
2023-03-13T04:43:57.495Z,1004.81
2023-03-13T04:44:57.451Z,1004.76
2023-03-13T04:45:57.667Z,1004.78
2023-03-13T04:46:58.126Z,1004.68
2023-03-13T04:47:58.010Z,1004.72
2023-03-13T04:48:58.137Z,1004.70
2023-03-13T04:49:58.400Z,1004.71
2023-03-13T04:50:58.588Z,1004.65
2023-03-13T04:51:58.601Z,1004.63
2023-03-13T04:52:58.751Z,1004.58
2023-03-13T04:53:58.961Z,1004.58
2023-03-13T04:54:59.117Z,1004.54
2023-03-13T04:55:59.297Z,1004.54
2023-03-13T04:56:59.482Z,1004.46
2023-03-13T04:57:59.670Z,1004.47
2023-03-13T04:58:59.883Z,1004.37
2023-03-13T05:00:00.167Z,1004.44
2023-03-13T05:01:00.427Z,1004.37
2023-03-13T05:02:00.623Z,1004.41
2023-03-13T05:03:00.672Z,1004.43
2023-03-13T05:04:00.790Z,1004.38
2023-03-13T05:05:01.039Z,1004.36
2023-03-13T05:06:01.182Z,1004.36
2023-03-13T05:07:01.421Z,1004.35
2023-03-13T05:08:01.581Z,1004.33
2023-03-13T05:09:01.703Z,1004.26
2023-03-13T05:10:01.884Z,1004.34
2023-03-13T05:11:03.160Z,1004.30
2023-03-13T05:12:02.366Z,1004.29
2023-03-13T05:13:02.434Z,1004.25
2023-03-13T05:14:02.735Z,1004.25
2023-03-13T05:15:02.788Z,1004.20
2023-03-13T05:16:03.094Z,1004.18
2023-03-13T05:17:03.392Z,1004.24
2023-03-13T05:18:03.405Z,1004.24
2023-03-13T05:19:03.616Z,1004.23
2023-03-13T05:20:03.610Z,1004.18
2023-03-13T05:21:03.781Z,1004.10
2023-03-13T05:22:03.968Z,1004.13
2023-03-13T05:23:04.140Z,1004.12
2023-03-13T05:24:04.329Z,1004.11
2023-03-13T05:25:04.501Z,1004.05
2023-03-13T05:26:04.681Z,1003.98
2023-03-13T05:27:04.841Z,1003.94
2023-03-13T05:28:05.012Z,1003.97
2023-03-13T05:29:05.203Z,1003.91
2023-03-13T05:30:05.358Z,1003.88
2023-03-13T05:31:05.549Z,1003.91
2023-03-13T05:32:05.701Z,1003.83
2023-03-13T05:33:05.897Z,1003.81
2023-03-13T05:34:06.082Z,1003.75
2023-03-13T05:35:06.212Z,1003.76
2023-03-13T05:36:06.398Z,1003.75
2023-03-13T05:37:06.549Z,1003.66
2023-03-13T05:38:06.753Z,1003.68
2023-03-13T05:39:06.922Z,1003.61
2023-03-13T05:40:07.077Z,1003.62
2023-03-13T05:41:07.244Z,1003.56
2023-03-13T05:42:07.400Z,1003.58
2023-03-13T05:43:07.552Z,1003.53
2023-03-13T05:44:07.774Z,1003.54
2023-03-13T05:45:07.930Z,1003.48
2023-03-13T05:46:08.177Z,1003.47
2023-03-13T05:47:08.262Z,1003.44
2023-03-13T05:48:08.469Z,1003.39
2023-03-13T05:49:08.645Z,1003.40
2023-03-13T05:50:08.801Z,1003.33
2023-03-13T05:51:08.960Z,1003.34
2023-03-13T05:52:09.135Z,1003.33
2023-03-13T05:53:09.303Z,1003.31
2023-03-13T05:54:09.479Z,1003.33
2023-03-13T05:55:09.646Z,1003.32
2023-03-13T05:56:09.797Z,1003.30
2023-03-13T05:57:09.955Z,1003.31
2023-03-13T05:58:10.167Z,1003.32
2023-03-13T05:59:10.330Z,1003.29
2023-03-13T06:00:10.488Z,1003.24
2023-03-13T06:01:10.645Z,1003.24
2023-03-13T06:02:10.812Z,1003.26
2023-03-13T06:03:13.808Z,1003.20
2023-03-13T06:04:11.210Z,1003.23
2023-03-13T06:05:11.440Z,1003.18
2023-03-13T06:06:11.475Z,1003.17
2023-03-13T06:07:11.633Z,1003.18
2023-03-13T06:08:11.804Z,1003.18
2023-03-13T06:09:11.986Z,1003.19
2023-03-13T06:10:12.153Z,1003.16
2023-03-13T06:11:12.303Z,1003.11
2023-03-13T06:12:12.512Z,1003.07
2023-03-13T06:13:19.699Z,1003.03
2023-03-13T06:14:13.843Z,1003.03
2023-03-13T06:15:12.991Z,1003.05
2023-03-13T06:16:13.206Z,1003.04
2023-03-13T06:17:13.320Z,1003.02
2023-03-13T06:18:13.472Z,1003.01
2023-03-13T06:19:13.642Z,1002.99
2023-03-13T06:20:13.811Z,1002.99
2023-03-13T06:21:13.970Z,1002.95
2023-03-13T06:22:14.142Z,1002.83
2023-03-13T06:23:14.294Z,1002.87
2023-03-13T06:24:14.470Z,1002.80
2023-03-13T06:25:14.633Z,1002.82
2023-03-13T06:26:14.788Z,1002.78
2023-03-13T06:27:14.969Z,1002.76
2023-03-13T06:28:15.129Z,1002.69
2023-03-13T06:29:15.304Z,1002.70
2023-03-13T06:30:15.471Z,1002.70
2023-03-13T06:31:15.643Z,1002.63
2023-03-13T06:32:15.837Z,1002.56
2023-03-13T06:33:15.982Z,1002.56
2023-03-13T06:34:16.143Z,1002.54
2023-03-13T06:35:16.302Z,1002.48
2023-03-13T06:36:16.510Z,1002.44
2023-03-13T06:37:16.645Z,1002.41
2023-03-13T06:38:16.823Z,1002.35
2023-03-13T06:39:17.020Z,1002.36
2023-03-13T06:40:17.242Z,1002.36
2023-03-13T06:41:17.360Z,1002.37
2023-03-13T06:42:17.512Z,1002.29
2023-03-13T06:43:17.691Z,1002.36
2023-03-13T06:44:17.882Z,1002.27
2023-03-13T06:45:18.030Z,1002.25
2023-03-13T06:46:18.265Z,1002.25
2023-03-13T06:47:18.417Z,1002.31
2023-03-13T06:48:18.552Z,1002.26
2023-03-13T06:49:18.738Z,1002.24
2023-03-13T06:50:18.911Z,1002.23
2023-03-13T06:51:19.096Z,1002.16
2023-03-13T06:52:20.275Z,1002.16
2023-03-13T06:53:19.466Z,1002.18
2023-03-13T06:54:19.639Z,1002.19
2023-03-13T06:55:19.783Z,1002.16
2023-03-13T06:56:19.962Z,1002.18
2023-03-13T06:57:20.141Z,1002.22
2023-03-13T06:58:31.666Z,1002.25
2023-03-13T06:59:21.518Z,1002.35
2023-03-13T07:00:20.674Z,1002.31
2023-03-13T07:01:20.878Z,1002.37
2023-03-13T07:02:21.031Z,1002.30
2023-03-13T07:03:21.203Z,1002.27
2023-03-13T07:04:21.482Z,1002.24
2023-03-13T07:05:21.575Z,1002.24
2023-03-13T07:06:21.749Z,1002.29
2023-03-13T07:07:31.210Z,1002.18
2023-03-13T07:08:23.111Z,1002.17
2023-03-13T07:09:22.275Z,1002.12
2023-03-13T07:10:24.078Z,1002.06
2023-03-13T07:11:22.608Z,1002.07
2023-03-13T07:12:22.806Z,1002.09
2023-03-13T07:13:22.960Z,1002.07
2023-03-13T07:14:23.137Z,1001.99
2023-03-13T07:15:23.313Z,1002.06
2023-03-13T07:16:23.539Z,1002.00
2023-03-13T07:17:23.800Z,1001.95
2023-03-13T07:18:23.856Z,1001.96
2023-03-13T07:19:24.007Z,1001.96
2023-03-13T07:20:24.188Z,1001.96
2023-03-13T07:21:24.369Z,1002.02
2023-03-13T07:22:24.567Z,1001.97
2023-03-13T07:23:24.724Z,1001.99
2023-03-13T07:24:25.011Z,1001.97
2023-03-13T07:25:25.078Z,1001.90
2023-03-13T07:26:25.278Z,1001.90
2023-03-13T07:27:25.488Z,1001.89
2023-03-13T07:28:25.618Z,1001.80
2023-03-13T07:29:25.808Z,1001.87
2023-03-13T07:30:25.977Z,1001.85
2023-03-13T07:31:26.245Z,1001.84
2023-03-13T07:32:26.374Z,1001.84
2023-03-13T07:33:26.510Z,1001.87
2023-03-13T07:34:26.703Z,1001.76
2023-03-13T07:35:26.859Z,1001.74
2023-03-13T07:36:27.045Z,1001.76
2023-03-13T07:37:27.208Z,1001.77
2023-03-13T07:38:27.377Z,1001.73
2023-03-13T07:39:27.570Z,1001.70
2023-03-13T07:40:27.755Z,1001.73
2023-03-13T07:41:27.896Z,1001.70
2023-03-13T07:42:28.085Z,1001.62
2023-03-13T07:43:28.258Z,1001.67
2023-03-13T07:44:28.447Z,1001.62
2023-03-13T07:45:28.628Z,1001.60
2023-03-13T07:46:28.789Z,1001.57
2023-03-13T07:47:28.973Z,1001.57
2023-03-13T07:48:29.137Z,1001.57
2023-03-13T07:49:29.346Z,1001.57
2023-03-13T07:50:29.630Z,1001.48
2023-03-13T07:51:42.402Z,1001.49
2023-03-13T07:52:30.827Z,1001.40
2023-03-13T07:53:30.046Z,1001.49
2023-03-13T07:54:30.201Z,1001.54
2023-03-13T07:55:30.364Z,1001.52
2023-03-13T07:56:30.540Z,1001.43
2023-03-13T07:57:30.724Z,1001.37
2023-03-13T07:58:30.898Z,1001.33
2023-03-13T07:59:31.104Z,1001.52
2023-03-13T08:00:31.244Z,1001.39
2023-03-13T08:01:31.580Z,1001.46
2023-03-13T08:02:31.636Z,1001.37
2023-03-13T08:03:31.845Z,1001.35
2023-03-13T08:04:31.968Z,1001.37
2023-03-13T08:05:32.145Z,1001.30
2023-03-13T08:06:33.961Z,1001.35
2023-03-13T08:07:32.488Z,1001.38
2023-03-13T08:08:32.668Z,1001.29
2023-03-13T08:09:32.858Z,1001.21
2023-03-13T08:10:32.994Z,1001.23
2023-03-13T08:11:33.187Z,1001.25
2023-03-13T08:12:33.355Z,1001.30
2023-03-13T08:13:33.546Z,1001.32
2023-03-13T08:14:33.713Z,1001.32
2023-03-13T08:15:33.965Z,1001.29
2023-03-13T08:16:34.258Z,1001.29
2023-03-13T08:17:34.223Z,1001.23
2023-03-13T08:18:34.391Z,1001.26
2023-03-13T08:19:34.597Z,1001.21
2023-03-13T08:20:34.752Z,1001.17
2023-03-13T08:21:34.944Z,1001.05
2023-03-13T08:22:35.113Z,1001.13
2023-03-13T08:23:35.271Z,1001.09
2023-03-13T08:24:35.467Z,1001.10
2023-03-13T08:25:36.080Z,1001.10
2023-03-13T08:26:35.791Z,1001.05
2023-03-13T08:27:35.979Z,1001.00
2023-03-13T08:28:36.147Z,1001.01
2023-03-13T08:29:36.319Z,1001.04
2023-03-13T08:30:36.501Z,1001.02
2023-03-13T08:31:36.666Z,1001.02
2023-03-13T08:32:36.892Z,1001.03
2023-03-13T08:33:37.019Z,1000.95
2023-03-13T08:34:37.181Z,1000.92
2023-03-13T08:35:37.389Z,1000.86
2023-03-13T08:36:37.486Z,1000.97
2023-03-13T08:37:37.669Z,1000.92
2023-03-13T08:38:37.849Z,1000.93
2023-03-13T08:39:38.036Z,1000.89
2023-03-13T08:40:38.179Z,1000.88
2023-03-13T08:41:38.379Z,1000.82
2023-03-13T08:42:38.545Z,1000.85
2023-03-13T08:43:38.704Z,1000.75
2023-03-13T08:44:38.877Z,1000.79
2023-03-13T08:45:39.046Z,1000.74
2023-03-13T08:46:39.359Z,1000.75
2023-03-13T08:47:39.400Z,1000.67
2023-03-13T08:48:39.571Z,1000.64
2023-03-13T08:49:39.772Z,1000.65
2023-03-13T08:50:39.920Z,1000.68
2023-03-13T08:51:40.095Z,1000.63
2023-03-13T08:52:40.291Z,1000.67
2023-03-13T08:53:40.453Z,1000.64
2023-03-13T08:54:40.633Z,1000.67
2023-03-13T08:55:40.808Z,1000.63
2023-03-13T08:56:40.976Z,1000.66
2023-03-13T08:57:41.126Z,1000.57
2023-03-13T08:58:41.305Z,1000.59
2023-03-13T08:59:41.510Z,1000.46
2023-03-13T09:00:41.672Z,1000.48
2023-03-13T09:01:41.852Z,1000.45
2023-03-13T09:02:42.057Z,1000.51
2023-03-13T09:03:42.284Z,1000.42
2023-03-13T09:04:42.352Z,1000.48
2023-03-13T09:05:55.198Z,1000.42
2023-03-13T09:06:43.695Z,1000.50
2023-03-13T09:07:42.883Z,1000.47
2023-03-13T09:08:43.063Z,1000.45
2023-03-13T09:09:43.256Z,1000.46
2023-03-13T09:10:43.407Z,1000.49
2023-03-13T09:11:43.597Z,1000.49
2023-03-13T09:12:43.774Z,1000.48
2023-03-13T09:13:43.935Z,1000.53
2023-03-13T09:14:44.105Z,1000.49
2023-03-13T09:15:44.342Z,1000.49
2023-03-13T09:16:44.450Z,1000.52
2023-03-13T09:17:44.604Z,1000.47
2023-03-13T09:18:44.770Z,1000.51
2023-03-13T09:19:59.156Z,1000.52
2023-03-13T09:20:47.588Z,1000.53
2023-03-13T09:21:45.328Z,1000.60
2023-03-13T09:22:45.484Z,1000.55
2023-03-13T09:23:45.644Z,1000.51
2023-03-13T09:24:45.834Z,1000.51
2023-03-13T09:25:46.011Z,1000.47
2023-03-13T09:27:00.064Z,1000.50
2023-03-13T09:27:47.369Z,1000.46
2023-03-13T09:28:46.502Z,1000.50
2023-03-13T09:29:46.672Z,1000.41
2023-03-13T09:30:46.848Z,1000.36
2023-03-13T09:31:47.014Z,1000.46
2023-03-13T09:32:47.275Z,1000.46
2023-03-13T09:33:47.347Z,1000.39
2023-03-13T09:34:47.532Z,1000.38
2023-03-13T09:35:47.709Z,1000.32
2023-03-13T09:36:47.874Z,1000.30
2023-03-13T09:37:48.076Z,1000.31
2023-03-13T09:38:48.239Z,1000.25
2023-03-13T09:39:48.455Z,1000.27
2023-03-13T09:40:59.775Z,1000.28
2023-03-13T09:41:49.754Z,1000.24
2023-03-13T09:42:48.934Z,1000.16
2023-03-13T09:43:49.113Z,1000.24
2023-03-13T09:44:49.304Z,1000.17
2023-03-13T09:45:49.441Z,1000.19
2023-03-13T09:46:49.685Z,1000.20
2023-03-13T09:47:49.788Z,1000.22
2023-03-13T09:48:50.099Z,1000.18
2023-03-13T09:49:50.139Z,1000.15
2023-03-13T09:50:50.305Z,1000.26
2023-03-13T09:51:50.505Z,1000.29
2023-03-13T09:52:50.698Z,1000.18
2023-03-13T09:53:50.835Z,1000.16
2023-03-13T09:54:51.022Z,1000.18
2023-03-13T09:55:51.180Z,1000.26
2023-03-13T09:56:51.347Z,1000.11
2023-03-13T09:57:51.594Z,1000.20
2023-03-13T09:58:51.722Z,1000.23
2023-03-13T09:59:51.915Z,1000.18
2023-03-13T10:00:52.041Z,1000.21
2023-03-13T10:01:52.351Z,1000.19
2023-03-13T10:02:52.465Z,1000.06
2023-03-13T10:03:52.604Z,1000.10
2023-03-13T10:04:52.832Z,1000.13
2023-03-13T10:05:52.982Z,1000.15
2023-03-13T10:06:53.155Z,1000.18
2023-03-13T10:07:53.325Z,1000.05
2023-03-13T10:08:53.550Z,1000.02
2023-03-13T10:09:53.685Z,1000.06
2023-03-13T10:10:53.840Z,1000.13
2023-03-13T10:11:54.040Z,1000.14
2023-03-13T10:12:54.189Z,1000.08
2023-03-13T10:13:54.357Z,1000.06
2023-03-13T10:14:54.539Z,1000.07
2023-03-13T10:15:54.724Z,999.90
2023-03-13T10:16:54.882Z,999.97
2023-03-13T10:17:55.081Z,999.96
2023-03-13T10:18:55.252Z,1000.04
2023-03-13T10:19:55.444Z,999.97
2023-03-13T10:20:55.600Z,1000.15
2023-03-13T10:21:55.792Z,1000.03
2023-03-13T10:22:55.945Z,999.95
2023-03-13T10:23:56.146Z,1000.00
2023-03-13T10:24:56.344Z,999.96
2023-03-13T10:25:56.507Z,999.96
2023-03-13T10:26:56.687Z,1000.00
2023-03-13T10:27:56.875Z,999.86
2023-03-13T10:28:57.031Z,999.94
2023-03-13T10:29:57.211Z,999.86
2023-03-13T10:30:57.415Z,999.83
2023-03-13T10:31:57.549Z,999.79
2023-03-13T10:32:57.800Z,999.74
2023-03-13T10:33:57.922Z,999.75
2023-03-13T10:34:58.127Z,999.58
2023-03-13T10:35:58.436Z,999.71
2023-03-13T10:36:58.450Z,999.65
2023-03-13T10:37:58.641Z,999.57
2023-03-13T10:38:58.821Z,999.68
2023-03-13T10:39:59.012Z,999.73
2023-03-13T10:40:59.220Z,999.71
2023-03-13T10:41:59.388Z,999.70
2023-03-13T10:42:59.563Z,999.69
2023-03-13T10:43:59.716Z,999.71
2023-03-13T10:44:59.880Z,999.67
2023-03-13T10:46:00.089Z,999.62
2023-03-13T10:47:00.321Z,999.69
2023-03-13T10:48:00.434Z,999.63
2023-03-13T10:49:00.612Z,999.69
2023-03-13T10:50:00.808Z,999.67
2023-03-13T10:51:02.440Z,999.63
2023-03-13T10:52:01.182Z,999.64
2023-03-13T10:53:01.368Z,999.58
2023-03-13T10:54:01.551Z,999.62
2023-03-13T10:55:01.756Z,999.64
2023-03-13T10:56:01.922Z,999.68
2023-03-13T10:57:02.063Z,999.61
2023-03-13T10:58:02.251Z,999.57
2023-03-13T10:59:02.439Z,999.62
2023-03-13T11:00:04.176Z,999.56
2023-03-13T11:01:02.810Z,999.56
2023-03-13T11:02:02.982Z,999.56
2023-03-13T11:03:03.334Z,999.52
2023-03-13T11:04:03.355Z,999.47
2023-03-13T11:05:03.603Z,999.51
2023-03-13T11:06:03.730Z,999.41
2023-03-13T11:07:03.884Z,999.33
2023-03-13T11:08:04.070Z,999.39
2023-03-13T11:09:04.253Z,999.34
2023-03-13T11:10:04.413Z,999.35
2023-03-13T11:11:04.600Z,999.25
2023-03-13T11:12:04.767Z,999.31
2023-03-13T11:13:04.945Z,999.25
2023-03-13T11:14:05.137Z,999.25
2023-03-13T11:15:05.362Z,999.23
2023-03-13T11:16:05.536Z,999.16
2023-03-13T11:17:05.686Z,999.20
2023-03-13T11:18:05.874Z,999.18
2023-03-13T11:19:06.026Z,999.16
2023-03-13T11:20:06.233Z,999.13
2023-03-13T11:21:17.600Z,999.13
2023-03-13T11:22:07.651Z,999.14
2023-03-13T11:23:06.742Z,999.11
2023-03-13T11:24:06.934Z,999.09
2023-03-13T11:25:07.102Z,999.09
2023-03-13T11:26:07.318Z,999.15
2023-03-13T11:27:07.488Z,999.14
2023-03-13T11:28:07.626Z,999.18
2023-03-13T11:29:07.806Z,999.15
2023-03-13T11:30:08.004Z,999.19
2023-03-13T11:31:08.289Z,999.11
2023-03-13T11:32:08.358Z,999.12
2023-03-13T11:33:08.543Z,999.10
2023-03-13T11:34:08.733Z,999.13
2023-03-13T11:35:08.897Z,999.11
2023-03-13T11:36:09.197Z,999.06
2023-03-13T11:37:09.278Z,999.00
2023-03-13T11:38:09.440Z,999.03
2023-03-13T11:39:09.618Z,998.96
2023-03-13T11:40:09.795Z,999.03
2023-03-13T11:41:10.039Z,999.04
2023-03-13T11:42:10.166Z,998.99
2023-03-13T11:43:23.988Z,998.97
2023-03-13T11:44:11.548Z,998.99
2023-03-13T11:45:10.738Z,999.08
2023-03-13T11:46:11.010Z,999.08
2023-03-13T11:47:11.080Z,999.08
2023-03-13T11:48:11.246Z,999.09
2023-03-13T11:49:11.446Z,999.09
2023-03-13T11:50:11.612Z,999.04
2023-03-13T11:51:11.819Z,998.97
2023-03-13T11:52:11.974Z,999.03
2023-03-13T11:53:12.159Z,998.92
2023-03-13T11:54:12.344Z,998.95
2023-03-13T11:55:12.534Z,998.95
2023-03-13T11:56:12.717Z,999.06
2023-03-13T11:57:12.923Z,999.04
2023-03-13T11:58:13.068Z,998.97
2023-03-13T11:59:13.273Z,999.00
2023-03-13T12:00:13.416Z,998.98
2023-03-13T12:01:13.655Z,998.96
2023-03-13T12:02:13.817Z,998.98
2023-03-13T12:03:13.998Z,998.91
2023-03-13T12:04:14.108Z,999.05
2023-03-13T12:05:14.421Z,998.97
2023-03-13T12:06:27.281Z,998.92
2023-03-13T12:07:15.916Z,999.02
2023-03-13T12:08:14.816Z,998.84
2023-03-13T12:09:15.018Z,998.94
2023-03-13T12:10:15.248Z,998.93
2023-03-13T12:11:15.368Z,998.92